首页
METAR-TAF:

METAR-TAF

机场 :

博韦, 法国

纬度: 49-28N, 经度: 002-07E, 海拔: 109米

当前天气观测

该预报发布于20分钟前的22:00 UTC
风速19节,风向北转东北
温度 2°C
湿度 47%
气压 1032 hPa
能见度10公里或以上
1500米以下无云,无积雨云

METAR: LFOB 292200Z AUTO 03019KT CAVOK 02/M08 Q1032 BECMG 02023G35KT

时间: 00:20 (22:20 UTC)

预报

该预报发布于5小时和20分钟前的17:00 UTC
预报有效从29日的 18点(UTC)到 30日的 18点(UTC)
风速23节,风向北转东北,有时为35节阵风
能见度10公里或以上
1500米以下无云,无积雨云
成为
从 30日的 06点(UTC)到 30日的 08点(UTC)
风速15节,风向北转东北,有时为25节阵风
成为
从 30日的 16点(UTC)到 30日的 18点(UTC)
风速12节,风向北转东北

TAF: LFOB 291700Z 2918/3018 02023G35KT CAVOK BECMG 3006/3008 02015G25KT BECMG 3016/3018 02012KT

超过4000个机场的气象观测和天气预报(METAR&TAF报告)。

可查询的气象台以黄色和红色小点在地图上表示。

将鼠标移到小点上方,可查看气象台名称。

然后点击查看天气观测和预报。

如需切换地图:点击带黑十字的绿色按钮放大地图;点击带横线的绿色按钮缩小地图;或者点击绿色箭头查看邻近地区的地图。


METAR-TAF: